Time;durP1;ratioP1;P1;durP2;ratioP2;P2;SDS_P1;SDS_P2;PMS_P1;PMS_P2;Temp;Humidity;BMP_temperature;BMP_pressure;BME280_temperature;BME280_humidity;BME280_pressure;Samples;Min_cycle;Max_cycle;Signal;HPM_P1;HPM_P2
2021/08/29 00:00:00;;;;;;;;;21.40;19.60;29.60;30.10;;;;;;696677;28;6066;-80
2021/08/29 00:00:21;;;;;;;;;21.00;20.00;29.60;31.20;;;;;;696855;28;5995;-80
2021/08/29 00:00:42;;;;;;;;;20.40;19.80;29.60;31.20;;;;;;696777;28;6063;-79
2021/08/29 00:01:02;;;;;;;;;19.00;18.00;29.60;31.10;;;;;;696897;28;5964;-79
2021/08/29 00:01:23;;;;;;;;;20.25;18.50;29.60;31.00;;;;;;696830;28;5694;-79
2021/08/29 00:01:44;;;;;;;;;17.75;17.75;29.60;31.10;;;;;;696711;28;6009;-79
2021/08/29 00:02:05;;;;;;;;;19.00;19.00;29.60;31.20;;;;;;696806;28;6071;-78
2021/08/29 00:02:26;;;;;;;;;21.00;20.80;29.60;31.10;;;;;;696611;28;6241;-79
2021/08/29 00:02:47;;;;;;;;;15.80;15.80;29.60;31.20;;;;;;696528;28;6149;-79
2021/08/29 00:03:07;;;;;;;;;17.00;17.00;29.60;31.10;;;;;;696543;28;6107;-80
2021/08/29 00:03:28;;;;;;;;;19.00;18.20;29.60;31.00;;;;;;693652;28;6236;-84
2021/08/29 00:03:49;;;;;;;;;19.75;19.00;29.60;32.30;;;;;;693797;28;6143;-79
2021/08/29 00:04:09;;;;;;;;;20.25;18.75;29.60;31.10;;;;;;693690;28;6388;-81
2021/08/29 00:04:30;;;;;;;;;19.75;18.75;29.60;31.20;;;;;;694465;28;6054;-80
2021/08/29 00:04:51;;;;;;;;;19.50;18.00;29.60;31.10;;;;;;696407;28;6173;-80
2021/08/29 00:05:12;;;;;;;;;20.00;17.00;29.60;31.10;;;;;;696528;28;7080;-80
2021/08/29 00:05:32;;;;;;;;;18.00;17.00;29.60;31.10;;;;;;696856;28;5932;-82
2021/08/29 00:05:53;;;;;;;;;18.00;17.50;29.60;31.00;;;;;;696787;28;6042;-80
2021/08/29 00:06:14;;;;;;;;;17.60;16.60;29.60;31.10;;;;;;696631;28;6125;-82
2021/08/29 00:06:36;;;;;;;;;20.00;19.00;29.50;31.00;;;;;;696326;28;6242;-80
2021/08/29 00:06:57;;;;;;;;;16.20;16.00;29.60;31.10;;;;;;696339;28;6832;-82
2021/08/29 00:07:18;;;;;;;;;22.00;20.00;29.50;31.30;;;;;;698350;28;6317;-82
2021/08/29 00:07:38;;;;;;;;;15.00;14.50;29.60;31.10;;;;;;699472;28;5871;-81
2021/08/29 00:07:59;;;;;;;;;18.25;17.75;29.60;31.10;;;;;;699408;28;6009;-80
2021/08/29 00:08:20;;;;;;;;;17.00;17.00;29.60;31.10;;;;;;699350;28;6798;-80
2021/08/29 00:08:41;;;;;;;;;17.00;16.00;29.50;31.20;;;;;;699503;28;6035;-80
2021/08/29 00:09:04;;;;;;;;;19.00;17.50;29.50;31.10;;;;;;699412;28;5931;-80
2021/08/29 00:09:25;;;;;;;;;21.60;21.20;29.60;31.10;;;;;;699399;28;6703;-79
2021/08/29 00:09:46;;;;;;;;;18.25;17.50;29.50;31.10;;;;;;699720;28;6558;-80
2021/08/29 00:10:07;;;;;;;;;17.50;17.50;29.60;31.20;;;;;;699676;28;5935;-80
2021/08/29 00:10:28;;;;;;;;;18.40;18.40;29.50;31.10;;;;;;699419;28;6691;-80
2021/08/29 00:10:49;;;;;;;;;24.25;22.75;29.50;31.20;;;;;;699567;28;6063;-79
2021/08/29 00:11:10;;;;;;;;;23.00;22.50;29.50;31.20;;;;;;697015;28;4965;-78
2021/08/29 00:11:31;;;;;;;;;15.80;15.40;29.50;31.10;;;;;;696718;28;6621;-78
2021/08/29 00:11:53;;;;;;;;;15.00;14.60;29.50;31.30;;;;;;696765;28;6099;-81
2021/08/29 00:12:14;;;;;;;;;17.50;17.50;29.50;31.20;;;;;;696763;28;6152;-80
2021/08/29 00:12:35;;;;;;;;;16.60;16.00;29.50;31.30;;;;;;696779;28;6707;-80
2021/08/29 00:12:55;;;;;;;;;14.67;14.67;29.50;31.20;;;;;;696776;28;6040;-78
2021/08/29 00:13:16;;;;;;;;;22.33;21.33;29.50;31.30;;;;;;696730;28;5942;-78
2021/08/29 00:13:37;;;;;;;;;18.50;18.50;29.50;31.30;;;;;;696081;28;6240;-82
2021/08/29 00:13:58;;;;;;;;;17.40;17.40;29.50;31.40;;;;;;696742;28;6111;-79
2021/08/29 00:14:18;;;;;;;;;17.60;16.60;29.50;31.20;;;;;;696733;28;6050;-79
2021/08/29 00:14:39;;;;;;;;;21.50;18.50;29.50;31.20;;;;;;696660;28;6048;-79
2021/08/29 00:15:00;;;;;;;;;18.75;16.75;29.50;31.20;;;;;;696370;28;6193;-78
2021/08/29 00:15:20;;;;;;;;;18.00;17.00;29.50;31.30;;;;;;696952;28;6074;-79
2021/08/29 00:15:42;;;;;;;;;16.50;16.50;29.50;31.30;;;;;;696737;28;6059;-83
2021/08/29 00:16:03;;;;;;;;;18.00;17.00;29.50;31.30;;;;;;696322;28;6890;-79
2021/08/29 00:16:24;;;;;;;;;17.50;17.50;29.40;31.20;;;;;;696707;28;6051;-80
2021/08/29 00:16:46;;;;;;;;;17.00;17.00;29.50;31.30;;;;;;696689;28;6098;-79
2021/08/29 00:17:07;;;;;;;;;15.00;15.00;29.50;31.30;;;;;;696418;28;6423;-79
2021/08/29 00:17:27;;;;;;;;;15.67;15.00;29.50;31.30;;;;;;696887;28;5931;-80
2021/08/29 00:17:48;;;;;;;;;19.00;18.25;29.50;31.50;;;;;;696517;28;6214;-78
2021/08/29 00:18:09;;;;;;;;;17.40;17.40;29.50;31.30;;;;;;696457;28;6128;-79
2021/08/29 00:18:30;;;;;;;;;16.00;15.60;29.50;31.30;;;;;;696328;28;7002;-79
2021/08/29 00:18:51;;;;;;;;;17.60;17.20;29.50;31.30;;;;;;696419;28;6773;-79
2021/08/29 00:19:12;;;;;;;;;19.50;17.50;29.50;31.30;;;;;;696267;28;6122;-80
2021/08/29 00:19:33;;;;;;;;;19.40;19.00;29.50;31.30;;;;;;696599;28;6117;-79
2021/08/29 00:19:53;;;;;;;;;17.40;16.40;29.50;31.30;;;;;;696768;28;6752;-80
2021/08/29 00:20:14;;;;;;;;;17.50;17.50;29.40;31.30;;;;;;696732;28;6053;-79
2021/08/29 00:20:35;;;;;;;;;17.50;16.00;29.50;31.30;;;;;;696786;28;6095;-81
2021/08/29 00:20:56;;;;;;;;;18.00;15.00;29.50;31.50;;;;;;696367;28;8600;-79
2021/08/29 00:21:17;;;;;;;;;15.00;14.00;29.40;31.20;;;;;;696409;28;5977;-79
2021/08/29 00:21:37;;;;;;;;;19.50;18.00;29.50;31.30;;;;;;696516;28;6005;-81
2021/08/29 00:21:58;;;;;;;;;18.00;17.00;29.40;31.30;;;;;;696447;28;6126;-79
2021/08/29 00:22:19;;;;;;;;;17.60;16.00;29.50;31.40;;;;;;696538;28;6161;-79
2021/08/29 00:22:39;;;;;;;;;17.00;17.00;29.40;31.30;;;;;;696717;28;6077;-79
2021/08/29 00:23:00;;;;;;;;;16.80;16.80;29.50;31.30;;;;;;696495;28;6123;-79
2021/08/29 00:23:21;;;;;;;;;16.00;15.00;29.50;31.30;;;;;;696480;28;6080;-79
2021/08/29 00:23:41;;;;;;;;;16.67;15.67;29.40;31.30;;;;;;696607;28;5996;-79
2021/08/29 00:24:02;;;;;;;;;17.00;17.00;29.50;31.40;;;;;;696516;28;6196;-78
2021/08/29 00:24:23;;;;;;;;;20.00;19.33;29.40;31.30;;;;;;696625;28;6142;-81
2021/08/29 00:24:44;;;;;;;;;16.50;15.50;29.40;31.30;;;;;;696412;28;6020;-79
2021/08/29 00:25:05;;;;;;;;;19.00;18.00;29.40;31.30;;;;;;696648;28;7441;-81
2021/08/29 00:25:27;;;;;;;;;16.00;15.00;29.40;31.30;;;;;;696776;28;6052;-80
2021/08/29 00:25:48;;;;;;;;;16.00;16.00;29.40;31.30;;;;;;696768;28;6416;-80
2021/08/29 00:26:09;;;;;;;;;16.25;16.25;29.40;31.30;;;;;;696904;28;5934;-80
2021/08/29 00:26:30;;;;;;;;;18.20;17.40;29.40;31.30;;;;;;696731;28;6030;-80
2021/08/29 00:26:50;;;;;;;;;19.50;17.75;29.40;31.30;;;;;;696890;28;6049;-80
2021/08/29 00:27:11;;;;;;;;;18.40;17.00;29.40;31.30;;;;;;696467;28;6994;-80
2021/08/29 00:27:32;;;;;;;;;20.67;20.00;29.40;31.30;;;;;;696604;28;5976;-80
2021/08/29 00:27:52;;;;;;;;;20.00;18.40;29.40;31.30;;;;;;696753;28;5994;-79
2021/08/29 00:28:13;;;;;;;;;17.25;15.25;29.40;31.30;;;;;;696634;28;6045;-79
2021/08/29 00:28:34;;;;;;;;;19.50;17.50;29.40;31.30;;;;;;696865;28;6163;-80
2021/08/29 00:28:54;;;;;;;;;18.40;17.40;29.40;31.30;;;;;;696787;28;6109;-80
2021/08/29 00:29:15;;;;;;;;;23.00;19.50;29.40;31.30;;;;;;696766;28;5991;-79
2021/08/29 00:29:37;;;;;;;;;20.25;18.25;29.40;31.30;;;;;;696796;28;5982;-81
2021/08/29 00:29:57;;;;;;;;;18.80;18.20;29.40;31.30;;;;;;696684;28;6489;-81
2021/08/29 00:30:20;;;;;;;;;15.40;15.40;29.40;31.30;;;;;;696788;28;6044;-80
2021/08/29 00:30:40;;;;;;;;;15.80;15.80;29.40;31.30;;;;;;696664;28;6433;-79
2021/08/29 00:31:01;;;;;;;;;14.00;14.00;29.40;31.30;;;;;;696302;28;7349;-79
2021/08/29 00:31:22;;;;;;;;;18.20;17.00;29.40;31.30;;;;;;693721;28;6135;-79
2021/08/29 00:31:43;;;;;;;;;18.80;17.40;29.40;31.30;;;;;;693670;28;6755;-78
2021/08/29 00:32:05;;;;;;;;;17.00;16.20;29.40;31.20;;;;;;693761;28;6227;-78
2021/08/29 00:32:25;;;;;;;;;16.40;14.40;29.40;31.30;;;;;;693681;28;6496;-78
2021/08/29 00:32:46;;;;;;;;;16.25;15.25;29.40;31.30;;;;;;694225;28;6087;-77
2021/08/29 00:33:07;;;;;;;;;16.25;16.25;29.40;31.40;;;;;;696540;28;6036;-79
2021/08/29 00:33:27;;;;;;;;;20.50;19.00;29.40;31.30;;;;;;696925;28;6008;-77
2021/08/29 00:33:48;;;;;;;;;16.60;16.60;29.40;31.30;;;;;;696638;28;6163;-79
2021/08/29 00:34:09;;;;;;;;;16.00;16.00;29.40;31.40;;;;;;696713;28;6677;-80
2021/08/29 00:34:29;;;;;;;;;15.00;15.00;29.40;31.30;;;;;;696626;28;6306;-80
2021/08/29 00:34:50;;;;;;;;;18.40;17.40;29.40;31.30;;;;;;696559;28;7237;-79
2021/08/29 00:35:11;;;;;;;;;16.00;16.00;29.40;31.30;;;;;;696321;28;6110;-80
2021/08/29 00:35:33;;;;;;;;;16.00;15.00;29.40;31.40;;;;;;696457;28;6228;-80
2021/08/29 00:35:54;;;;;;;;;15.50;15.50;29.40;31.40;;;;;;696165;28;7493;-80
2021/08/29 00:36:15;;;;;;;;;17.00;16.00;29.40;31.30;;;;;;696425;28;6166;-79
2021/08/29 00:36:35;;;;;;;;;17.00;16.60;29.40;31.40;;;;;;696654;28;6072;-79
2021/08/29 00:36:56;;;;;;;;;16.00;15.40;29.40;31.40;;;;;;696349;28;6101;-79
2021/08/29 00:37:17;;;;;;;;;16.75;14.75;29.40;31.40;;;;;;695832;28;6163;-81
2021/08/29 00:37:38;;;;;;;;;16.00;16.00;29.40;31.40;;;;;;696471;28;6714;-79
2021/08/29 00:37:58;;;;;;;;;16.80;15.80;29.40;31.60;;;;;;696406;28;6128;-79
2021/08/29 00:38:20;;;;;;;;;20.25;18.00;29.40;31.40;;;;;;696386;28;6155;-79
2021/08/29 00:38:40;;;;;;;;;17.00;16.60;29.40;31.30;;;;;;696247;28;6212;-80
2021/08/29 00:39:01;;;;;;;;;15.00;14.00;29.40;31.40;;;;;;695731;28;6858;-79
2021/08/29 00:39:22;;;;;;;;;15.20;15.20;29.40;31.40;;;;;;696429;28;6116;-79
2021/08/29 00:39:43;;;;;;;;;17.00;16.00;29.40;31.50;;;;;;696481;28;6259;-80
2021/08/29 00:40:05;;;;;;;;;15.50;15.50;29.40;31.40;;;;;;695364;28;6175;-79
2021/08/29 00:40:27;;;;;;;;;16.50;16.25;29.40;31.40;;;;;;696828;28;6452;-80
2021/08/29 00:40:51;;;;;;;;;16.00;14.40;29.40;31.40;;;;;;698186;28;6625;-79
2021/08/29 00:41:12;;;;;;;;;16.60;15.40;29.40;31.50;;;;;;696384;28;6493;-79
2021/08/29 00:41:33;;;;;;;;;18.00;18.00;29.40;31.50;;;;;;696825;28;5945;-80
2021/08/29 00:41:53;;;;;;;;;17.60;17.40;29.40;31.50;;;;;;696683;28;6124;-79
2021/08/29 00:42:14;;;;;;;;;16.25;16.00;29.40;31.60;;;;;;696487;28;5947;-80
2021/08/29 00:42:35;;;;;;;;;20.00;18.20;29.40;31.50;;;;;;696559;28;6264;-79
2021/08/29 00:42:56;;;;;;;;;15.40;15.40;29.40;31.50;;;;;;696715;28;6023;-80
2021/08/29 00:43:20;;;;;;;;;18.75;17.75;29.40;31.50;;;;;;696666;28;6070;-80
2021/08/29 00:43:41;;;;;;;;;17.25;15.50;29.40;31.50;;;;;;696647;28;6688;-79
2021/08/29 00:44:02;;;;;;;;;18.00;16.60;29.40;31.50;;;;;;696670;28;6049;-80
2021/08/29 00:44:23;;;;;;;;;16.25;14.50;29.40;31.50;;;;;;696486;28;6381;-80
2021/08/29 00:44:44;;;;;;;;;15.00;14.00;29.40;31.60;;;;;;696639;28;6820;-80
2021/08/29 00:45:05;;;;;;;;;17.00;15.00;29.40;31.50;;;;;;696642;28;7171;-80
2021/08/29 00:45:26;;;;;;;;;17.40;15.80;29.40;31.40;;;;;;696609;28;6803;-80
2021/08/29 00:45:47;;;;;;;;;18.00;17.00;29.40;31.40;;;;;;696858;28;5987;-80
2021/08/29 00:46:08;;;;;;;;;21.00;19.00;29.40;31.50;;;;;;696651;28;6055;-79
2021/08/29 00:46:32;;;;;;;;;17.40;17.00;29.40;31.50;;;;;;696521;28;6179;-80
2021/08/29 00:46:53;;;;;;;;;19.25;19.00;29.30;31.40;;;;;;696636;28;6509;-81
2021/08/29 00:47:13;;;;;;;;;21.00;19.00;29.40;31.40;;;;;;696701;28;6735;-79
2021/08/29 00:47:35;;;;;;;;;20.50;18.50;29.40;31.50;;;;;;696698;28;6784;-80
2021/08/29 00:47:56;;;;;;;;;17.80;16.00;29.30;31.40;;;;;;696520;28;6388;-79
2021/08/29 00:48:16;;;;;;;;;18.00;17.00;29.30;31.60;;;;;;696592;28;5424;-80
2021/08/29 00:48:42;;;;;;;;;17.25;15.00;29.30;31.40;;;;;;696498;28;6061;-79
2021/08/29 00:49:03;;;;;;;;;16.50;15.50;29.30;31.50;;;;;;696447;28;6671;-80
2021/08/29 00:49:24;;;;;;;;;18.50;15.50;29.30;31.50;;;;;;696657;28;6161;-80
2021/08/29 00:49:45;;;;;;;;;16.20;15.20;29.30;31.50;;;;;;696684;28;6065;-79
2021/08/29 00:50:06;;;;;;;;;17.20;17.20;29.30;31.60;;;;;;696577;28;6056;-80
2021/08/29 00:50:28;;;;;;;;;17.00;16.00;29.40;31.60;;;;;;696345;28;7475;-81
2021/08/29 00:50:49;;;;;;;;;17.00;16.00;29.30;31.50;;;;;;696575;28;6420;-77
2021/08/29 00:51:11;;;;;;;;;17.60;17.00;29.30;31.50;;;;;;696794;28;6030;-79
2021/08/29 00:51:34;;;;;;;;;19.00;18.00;29.30;31.50;;;;;;696654;28;6615;-78
2021/08/29 00:52:02;;;;;;;;;16.25;14.75;29.30;31.50;;;;;;696329;28;6339;-77
2021/08/29 00:52:23;;;;;;;;;16.50;15.50;29.30;31.70;;;;;;696404;28;6481;-80
2021/08/29 00:52:44;;;;;;;;;19.50;18.00;29.30;31.50;;;;;;696319;28;6033;-80
2021/08/29 00:53:05;;;;;;;;;17.50;16.50;29.30;31.60;;;;;;696436;28;6029;-78
2021/08/29 00:53:27;;;;;;;;;17.80;16.80;29.30;31.50;;;;;;696370;28;6498;-78
2021/08/29 00:53:49;;;;;;;;;15.20;14.80;29.40;31.70;;;;;;696582;28;6682;-78
2021/08/29 00:54:10;;;;;;;;;14.75;14.75;29.30;31.50;;;;;;696702;28;6181;-78
2021/08/29 00:54:32;;;;;;;;;17.50;15.00;29.30;31.60;;;;;;696501;28;5999;-78
2021/08/29 00:54:52;;;;;;;;;18.25;18.00;29.30;31.60;;;;;;696552;28;6559;-78
2021/08/29 00:55:13;;;;;;;;;18.60;18.00;29.30;31.50;;;;;;695829;28;6192;-78
2021/08/29 00:55:37;;;;;;;;;17.00;17.00;29.30;31.60;;;;;;696517;28;6786;-78
2021/08/29 00:55:57;;;;;;;;;17.40;17.00;29.30;31.60;;;;;;696455;28;6293;-78
2021/08/29 00:56:18;;;;;;;;;19.00;18.00;29.30;31.60;;;;;;696452;28;6030;-78
2021/08/29 00:56:39;;;;;;;;;21.00;19.00;29.30;31.50;;;;;;696265;28;6130;-78
2021/08/29 00:57:07;;;;;;;;;20.50;19.00;29.30;31.60;;;;;;696423;28;6355;-80
2021/08/29 00:57:28;;;;;;;;;19.20;18.00;29.30;31.60;;;;;;696595;28;6710;-80
2021/08/29 00:57:49;;;;;;;;;18.00;16.33;29.30;31.60;;;;;;696462;28;5993;-80
2021/08/29 00:58:09;;;;;;;;;19.00;18.50;29.30;31.60;;;;;;696399;28;6236;-90
2021/08/29 00:58:30;;;;;;;;;20.40;16.40;29.30;31.60;;;;;;696481;28;6131;-89
2021/08/29 00:58:51;;;;;;;;;16.00;16.00;29.30;31.50;;;;;;696417;28;6112;-84
2021/08/29 00:59:12;;;;;;;;;18.00;17.80;29.30;31.60;;;;;;696527;28;6119;-88
2021/08/29 00:59:36;;;;;;;;;19.50;19.00;29.30;31.60;;;;;;696690;28;6054;-81
2021/08/29 00:59:56;;;;;;;;;16.50;16.50;29.30;31.60;;;;;;696886;28;6582;-87
2021/08/29 01:00:18;;;;;;;;;17.00;16.00;29.30;31.60;;;;;;696798;28;6147;-92
2021/08/29 01:00:42;;;;;;;;;17.00;17.00;29.30;32.60;;;;;;696793;28;6516;-87
2021/08/29 01:01:02;;;;;;;;;16.00;15.50;29.30;31.50;;;;;;696684;28;6448;-88
2021/08/29 01:01:32;;;;;;;;;17.00;16.00;29.30;31.60;;;;;;696859;28;6216;-84
2021/08/29 01:02:01;;;;;;;;;15.00;15.00;29.30;31.60;;;;;;696676;28;6195;-85
2021/08/29 01:02:27;;;;;;;;;15.00;15.00;29.20;30.60;;;;;;696608;28;6302;-85
2021/08/29 01:02:48;;;;;;;;;17.00;16.00;29.30;31.80;;;;;;696677;28;6168;-90
2021/08/29 01:03:29;;;;;;;;;15.20;15.00;29.30;31.70;;;;;;696836;28;6165;-85
2021/08/29 01:03:56;;;;;;;;;20.40;19.40;29.30;31.70;;;;;;696473;28;6239;-88
2021/08/29 01:04:23;;;;;;;;;18.00;17.00;29.30;31.70;;;;;;696558;28;6681;-84
2021/08/29 01:05:04;;;;;;;;;16.80;16.00;29.30;31.70;;;;;;696621;28;6493;-84
2021/08/29 01:05:30;;;;;;;;;15.00;15.00;29.30;31.70;;;;;;696559;28;6397;-91
2021/08/29 01:06:17;;;;;;;;;19.00;17.00;29.30;32.10;;;;;;696699;28;6822;-87
2021/08/29 01:07:04;;;;;;;;;17.40;16.40;29.30;31.70;;;;;;696612;28;6256;-91
2021/08/29 01:07:43;;;;;;;;;15.00;15.00;29.30;31.70;;;;;;687924;28;6779;-82
2021/08/29 01:08:07;;;;;;;;;17.40;15.40;29.30;31.70;;;;;;688033;28;6327;-86
2021/08/29 01:08:34;;;;;;;;;20.00;18.00;29.30;32.00;;;;;;685190;28;8461;-90
2021/08/29 01:09:02;;;;;;;;;20.00;20.00;29.20;31.60;;;;;;685426;28;6280;-92
2021/08/29 01:09:23;;;;;;;;;15.40;14.40;29.30;31.80;;;;;;685145;28;7579;-87
2021/08/29 01:09:46;;;;;;;;;15.75;15.75;29.30;31.80;;;;;;685424;28;6167;-92
2021/08/29 01:10:12;;;;;;;;;16.50;15.50;29.20;31.80;;;;;;685109;28;6515;-84
2021/08/29 01:10:42;;;;;;;;;19.00;18.40;29.30;32.00;;;;;;687959;28;7608;-88
2021/08/29 01:11:23;;;;;;;;;17.50;16.50;29.30;31.80;;;;;;687957;28;6347;-81
2021/08/29 01:11:47;;;;;;;;;15.60;15.60;29.30;31.80;;;;;;687944;28;6552;-83
2021/08/29 01:12:09;;;;;;;;;18.60;17.60;29.30;31.70;;;;;;685234;28;6810;-81
2021/08/29 01:12:30;;;;;;;;;16.50;15.75;29.30;31.70;;;;;;685403;28;6763;-84
2021/08/29 01:12:54;;;;;;;;;14.25;14.25;29.30;31.70;;;;;;685224;28;6543;-89
2021/08/29 01:13:32;;;;;;;;;19.80;17.20;29.30;31.70;;;;;;684999;28;7658;-80
2021/08/29 01:14:01;;;;;;;;;20.50;18.50;29.30;31.70;;;;;;685831;28;6334;-81
2021/08/29 01:14:24;;;;;;;;;20.00;19.00;29.30;31.70;;;;;;687971;28;6293;-80
2021/08/29 01:14:48;;;;;;;;;17.50;17.50;29.30;31.70;;;;;;687939;28;7250;-81
2021/08/29 01:15:10;;;;;;;;;18.50;17.50;29.20;31.60;;;;;;688127;28;7177;-80
2021/08/29 01:15:32;;;;;;;;;18.00;17.00;29.30;31.60;;;;;;687933;28;6514;-79
2021/08/29 01:15:57;;;;;;;;;16.50;16.50;29.30;31.70;;;;;;687975;28;6523;-80
2021/08/29 01:16:22;;;;;;;;;15.20;14.00;29.30;31.60;;;;;;687919;28;6510;-80
2021/08/29 01:16:47;;;;;;;;;20.50;19.25;29.30;31.60;;;;;;688033;28;6321;-82
2021/08/29 01:17:09;;;;;;;;;19.00;18.00;29.30;31.70;;;;;;687766;28;6693;-80
2021/08/29 01:17:33;;;;;;;;;18.75;18.00;29.30;31.70;;;;;;687899;28;6120;-81
2021/08/29 01:17:57;;;;;;;;;20.00;20.00;29.30;31.60;;;;;;685096;28;6502;-81
2021/08/29 01:18:21;;;;;;;;;19.50;17.00;29.30;31.60;;;;;;685069;28;6580;-80
2021/08/29 01:18:43;;;;;;;;;15.60;15.60;29.30;31.60;;;;;;685244;28;6280;-80
2021/08/29 01:19:10;;;;;;;;;12.80;12.80;29.30;31.60;;;;;;685300;28;7474;-79
2021/08/29 01:19:59;;;;;;;;;18.00;18.00;29.30;31.80;;;;;;685193;28;7699;-81
2021/08/29 01:20:32;;;;;;;;;16.60;16.60;29.30;31.60;;;;;;687887;28;6527;-82
2021/08/29 01:21:08;;;;;;;;;14.40;14.40;29.30;31.60;;;;;;687861;28;6509;-79
2021/08/29 01:21:35;;;;;;;;;16.75;16.75;29.30;32.00;;;;;;687994;28;7946;-81
2021/08/29 01:21:58;;;;;;;;;19.00;17.00;29.30;31.60;;;;;;687897;28;6773;-80
2021/08/29 01:22:20;;;;;;;;;20.50;19.00;29.30;31.80;;;;;;688034;28;6282;-80
2021/08/29 01:22:44;;;;;;;;;16.20;16.00;29.30;31.60;;;;;;688042;28;6842;-80
2021/08/29 01:23:08;;;;;;;;;21.60;21.60;29.20;31.50;;;;;;688130;28;6294;-81
2021/08/29 01:23:31;;;;;;;;;18.00;18.00;29.20;31.50;;;;;;687877;28;7010;-80
2021/08/29 01:24:04;;;;;;;;;18.60;18.60;29.20;31.60;;;;;;688021;28;6768;-82
2021/08/29 01:24:27;;;;;;;;;16.25;15.00;29.30;31.60;;;;;;687918;28;6882;-86
2021/08/29 01:24:50;;;;;;;;;17.60;15.60;29.20;31.80;;;;;;688043;28;6256;-87
2021/08/29 01:25:19;;;;;;;;;20.40;19.80;29.20;31.80;;;;;;687748;28;6294;-82
2021/08/29 01:25:48;;;;;;;;;19.80;19.80;29.20;31.60;;;;;;688079;28;6598;-81
2021/08/29 01:26:25;;;;;;;;;15.00;15.00;29.20;31.60;;;;;;685043;28;6718;-83
2021/08/29 01:26:50;;;;;;;;;22.00;20.00;29.20;31.70;;;;;;685089;28;6501;-85
2021/08/29 01:27:17;;;;;;;;;15.00;15.00;29.20;31.50;;;;;;685283;28;6646;-82
2021/08/29 01:27:49;;;;;;;;;14.80;14.80;29.20;31.60;;;;;;685526;28;6290;-82
2021/08/29 01:28:14;;;;;;;;;15.60;15.00;29.20;31.60;;;;;;687916;28;6278;-83
2021/08/29 01:28:50;;;;;;;;;19.60;16.00;29.20;32.80;;;;;;688020;28;7012;-87
2021/08/29 01:29:14;;;;;;;;;19.00;19.00;29.20;31.70;;;;;;688065;28;6310;-87
2021/08/29 01:29:35;;;;;;;;;20.60;20.00;28.90;31.30;;;;;;688167;28;6492;-89
2021/08/29 01:29:57;;;;;;;;;18.00;17.00;29.20;31.80;;;;;;688533;28;6221;-90
2021/08/29 01:30:18;;;;;;;;;17.80;16.60;29.20;31.60;;;;;;688275;28;6832;-85
2021/08/29 01:30:40;;;;;;;;;17.20;16.80;29.30;31.60;;;;;;688500;28;6093;-89
2021/08/29 01:31:02;;;;;;;;;21.75;21.25;29.20;31.50;;;;;;688451;28;6283;-87
2021/08/29 01:31:27;;;;;;;;;20.00;18.00;29.20;31.50;;;;;;688579;28;6546;-85
2021/08/29 01:31:47;;;;;;;;;17.00;15.80;29.20;31.60;;;;;;688240;28;6785;-90
2021/08/29 01:32:09;;;;;;;;;18.60;17.00;29.20;31.80;;;;;;685587;28;6146;-89
2021/08/29 01:32:30;;;;;;;;;19.50;19.25;29.20;31.60;;;;;;685374;28;6052;-88
2021/08/29 01:32:53;;;;;;;;;17.00;17.00;29.20;31.50;;;;;;685555;28;6783;-88
2021/08/29 01:33:14;;;;;;;;;21.50;20.50;29.20;31.50;;;;;;685388;28;6447;-87
2021/08/29 01:33:35;;;;;;;;;17.00;16.00;29.20;31.60;;;;;;685498;28;6097;-81
2021/08/29 01:34:02;;;;;;;;;18.25;17.25;29.20;31.60;;;;;;686811;28;6091;-87
2021/08/29 01:34:22;;;;;;;;;18.80;17.20;29.20;31.60;;;;;;688212;28;6356;-86
2021/08/29 01:34:44;;;;;;;;;19.75;19.25;29.20;31.60;;;;;;686342;28;6037;-80
2021/08/29 01:35:06;;;;;;;;;21.60;20.60;29.20;31.60;;;;;;685554;28;6352;-83
2021/08/29 01:35:27;;;;;;;;;21.00;20.60;29.20;31.80;;;;;;685955;28;6188;-80
2021/08/29 01:35:48;;;;;;;;;14.00;14.00;29.20;31.80;;;;;;685922;28;6311;-80
2021/08/29 01:36:09;;;;;;;;;14.60;13.60;29.20;31.80;;;;;;685747;28;6062;-83
2021/08/29 01:36:32;;;;;;;;;17.20;16.20;29.20;31.80;;;;;;686382;28;6817;-83
2021/08/29 01:36:55;;;;;;;;;17.00;16.75;29.20;31.90;;;;;;688365;28;6493;-82
2021/08/29 01:37:16;;;;;;;;;16.20;16.00;29.20;31.80;;;;;;688121;28;6498;-84
2021/08/29 01:37:39;;;;;;;;;16.60;15.80;29.20;31.70;;;;;;688305;28;7068;-82
2021/08/29 01:38:03;;;;;;;;;18.20;16.40;29.20;31.80;;;;;;688535;28;6285;-82
2021/08/29 01:38:24;;;;;;;;;16.60;16.00;29.20;31.80;;;;;;688094;28;7683;-80
2021/08/29 01:38:47;;;;;;;;;17.00;17.00;29.20;31.80;;;;;;688215;28;6184;-80
2021/08/29 01:39:09;;;;;;;;;16.80;15.80;29.30;31.90;;;;;;688227;28;6521;-82
2021/08/29 01:39:32;;;;;;;;;17.25;16.25;29.30;31.90;;;;;;688990;28;6657;-82
2021/08/29 01:39:55;;;;;;;;;19.80;18.00;29.30;31.80;;;;;;690361;28;6858;-81
2021/08/29 01:40:16;;;;;;;;;22.60;22.60;29.20;31.60;;;;;;690726;28;6301;-78
2021/08/29 01:40:38;;;;;;;;;19.00;18.00;29.20;31.70;;;;;;690537;28;6123;-79
2021/08/29 01:40:59;;;;;;;;;16.50;15.00;29.30;31.70;;;;;;690127;28;6739;-79
2021/08/29 01:41:21;;;;;;;;;16.60;16.60;29.30;31.80;;;;;;688545;28;6175;-81
2021/08/29 01:41:45;;;;;;;;;16.00;14.00;29.30;31.80;;;;;;686030;28;6840;-84
2021/08/29 01:42:06;;;;;;;;;21.75;21.00;29.30;31.70;;;;;;686406;28;7974;-80
2021/08/29 01:42:28;;;;;;;;;17.00;16.00;29.30;31.70;;;;;;686156;28;6172;-80
2021/08/29 01:42:49;;;;;;;;;15.60;15.00;29.30;31.80;;;;;;685912;28;6579;-84
2021/08/29 01:43:10;;;;;;;;;17.00;16.40;29.30;31.70;;;;;;686151;28;6160;-82
2021/08/29 01:43:31;;;;;;;;;16.50;16.50;29.30;31.80;;;;;;686989;28;6487;-81
2021/08/29 01:43:53;;;;;;;;;18.00;17.00;29.30;31.60;;;;;;688489;28;6278;-81
2021/08/29 01:44:14;;;;;;;;;17.60;17.00;29.20;31.60;;;;;;688417;28;6283;-80
2021/08/29 01:44:35;;;;;;;;;17.25;16.00;29.30;31.70;;;;;;688558;28;6062;-84
2021/08/29 01:44:57;;;;;;;;;19.20;17.20;29.30;31.70;;;;;;688447;28;6156;-84
2021/08/29 01:45:20;;;;;;;;;19.80;19.80;29.30;31.70;;;;;;688151;28;6560;-84
2021/08/29 01:45:42;;;;;;;;;16.40;16.40;29.30;31.60;;;;;;696908;28;6898;-81
2021/08/29 01:46:04;;;;;;;;;19.40;17.40;29.30;31.60;;;;;;697014;28;6400;-81
2021/08/29 01:46:25;;;;;;;;;17.00;17.00;29.30;31.60;;;;;;696884;28;6787;-83
2021/08/29 01:46:46;;;;;;;;;17.60;16.60;29.30;31.60;;;;;;697072;28;6060;-82
2021/08/29 01:47:07;;;;;;;;;18.00;15.00;29.30;31.60;;;;;;697041;28;5968;-81
2021/08/29 01:47:29;;;;;;;;;17.00;15.00;29.30;31.70;;;;;;697125;28;6035;-83
2021/08/29 01:47:56;;;;;;;;;18.60;16.20;29.30;31.60;;;;;;696989;28;6863;-82
2021/08/29 01:48:17;;;;;;;;;17.00;17.00;29.30;32.60;;;;;;697059;28;6534;-81
2021/08/29 01:48:40;;;;;;;;;16.40;16.40;29.30;31.60;;;;;;697043;28;6068;-80
2021/08/29 01:49:06;;;;;;;;;16.40;16.40;29.30;31.60;;;;;;696929;28;6729;-81
2021/08/29 01:49:28;;;;;;;;;21.00;21.00;29.30;31.60;;;;;;697026;28;6855;-83
2021/08/29 01:49:50;;;;;;;;;14.80;14.60;29.30;31.60;;;;;;697115;28;6783;-80
2021/08/29 01:50:11;;;;;;;;;16.60;16.40;29.30;31.60;;;;;;697177;28;6156;-82
2021/08/29 01:50:31;;;;;;;;;19.40;18.40;29.30;31.70;;;;;;696917;28;6812;-81
2021/08/29 01:50:53;;;;;;;;;16.50;15.50;29.30;31.60;;;;;;697090;28;5947;-82
2021/08/29 01:51:14;;;;;;;;;18.00;16.00;29.30;31.60;;;;;;697065;28;6092;-81
2021/08/29 01:51:37;;;;;;;;;18.75;17.00;29.30;31.50;;;;;;696744;28;6645;-84
2021/08/29 01:51:58;;;;;;;;;19.75;18.75;29.30;31.50;;;;;;696655;28;8912;-83
2021/08/29 01:52:18;;;;;;;;;17.40;17.40;29.30;31.50;;;;;;696844;28;6409;-82
2021/08/29 01:52:39;;;;;;;;;17.75;17.75;29.30;31.50;;;;;;696891;28;6002;-82
2021/08/29 01:53:00;;;;;;;;;14.75;14.75;29.30;31.60;;;;;;696855;28;6004;-82
2021/08/29 01:53:21;;;;;;;;;16.25;15.25;29.30;31.50;;;;;;696903;28;5987;-82
2021/08/29 01:53:41;;;;;;;;;17.75;17.00;29.30;31.50;;;;;;697233;28;6036;-90
2021/08/29 01:54:02;;;;;;;;;17.40;16.40;29.30;31.40;;;;;;699883;28;6125;-87
2021/08/29 01:54:23;;;;;;;;;17.00;15.00;29.40;31.60;;;;;;699895;28;5968;-86
2021/08/29 01:54:44;;;;;;;;;18.00;16.00;29.40;31.60;;;;;;696906;28;6274;-86
2021/08/29 01:55:05;;;;;;;;;17.80;17.00;29.40;31.60;;;;;;697275;28;6687;-87
2021/08/29 01:55:26;;;;;;;;;16.80;15.80;29.40;31.50;;;;;;696753;28;6416;-88
2021/08/29 01:55:49;;;;;;;;;17.00;17.00;29.40;31.50;;;;;;696547;28;6089;-89
2021/08/29 01:56:10;;;;;;;;;16.40;16.00;29.40;31.50;;;;;;697165;28;6261;-90
2021/08/29 01:56:31;;;;;;;;;15.00;14.60;29.40;31.50;;;;;;697075;28;6932;-89
2021/08/29 01:57:11;;;;;;;;;19.00;18.00;29.40;31.50;;;;;;697221;28;5998;-86
2021/08/29 01:57:32;;;;;;;;;15.40;15.20;29.30;31.30;;;;;;697125;28;6614;-90
2021/08/29 01:57:53;;;;;;;;;18.00;17.75;29.40;31.50;;;;;;697061;28;6000;-80
2021/08/29 01:58:14;;;;;;;;;17.00;16.00;29.40;31.50;;;;;;694227;28;6113;-86